createdAt,value
2022-12-12T00:01:31.246Z,-0.48
2022-12-12T00:04:20.723Z,-0.42
2022-12-12T00:07:09.113Z,-0.45
2022-12-12T00:09:57.085Z,-0.47
2022-12-12T00:12:45.090Z,-0.58
2022-12-12T00:15:33.123Z,-0.65
2022-12-12T00:18:21.127Z,-0.67
2022-12-12T00:21:15.162Z,-0.60
2022-12-12T00:24:03.183Z,-0.69
2022-12-12T00:26:51.116Z,-0.52
2022-12-12T00:29:39.297Z,-0.56
2022-12-12T00:32:27.532Z,-0.66
2022-12-12T00:35:15.633Z,-0.57
2022-12-12T00:38:04.941Z,-0.60
2022-12-12T00:40:57.162Z,-0.51
2022-12-12T00:43:45.529Z,-0.49
2022-12-12T00:46:33.530Z,-0.42
2022-12-12T00:49:21.510Z,-0.49
2022-12-12T00:52:09.441Z,-0.42
2022-12-12T00:54:58.928Z,-0.47
2022-12-12T00:57:46.862Z,-0.36
2022-12-12T01:00:35.512Z,-0.40
2022-12-12T01:03:23.766Z,-0.39
2022-12-12T01:06:12.893Z,-0.33
2022-12-12T01:09:01.099Z,-0.67
2022-12-12T01:11:50.436Z,-0.22
2022-12-12T01:14:38.368Z,-0.16
2022-12-12T01:17:27.525Z,-0.24
2022-12-12T01:20:19.116Z,-0.17
2022-12-12T01:23:07.018Z,-0.24
2022-12-12T01:26:00.702Z,-0.13
2022-12-12T01:28:50.611Z,-0.06
2022-12-12T01:31:38.851Z,-0.13
2022-12-12T01:34:26.860Z,-0.07
2022-12-12T01:37:14.840Z,-0.25
2022-12-12T01:40:03.030Z,-0.35
2022-12-12T01:42:51.626Z,-0.30
2022-12-12T01:46:19.119Z,-0.33
2022-12-12T01:49:14.243Z,-0.39
2022-12-12T01:52:06.818Z,-0.52
2022-12-12T01:54:58.248Z,-0.40
2022-12-12T01:57:50.134Z,-0.29
2022-12-12T02:00:38.246Z,-0.27
2022-12-12T02:03:26.838Z,-0.24
2022-12-12T02:06:19.690Z,-0.12
2022-12-12T02:09:10.422Z,-0.10
2022-12-12T02:11:58.870Z,-0.33
2022-12-12T02:14:52.136Z,-0.49
2022-12-12T02:17:53.634Z,-0.38
2022-12-12T02:20:55.011Z,-0.44
2022-12-12T02:24:29.061Z,-0.30
2022-12-12T02:27:53.955Z,-0.34
2022-12-12T02:30:49.555Z,-0.29
2022-12-12T02:33:42.875Z,-0.24
2022-12-12T02:36:37.447Z,-0.33
2022-12-12T02:39:34.314Z,-0.38
2022-12-12T02:42:27.920Z,-0.60
2022-12-12T02:45:21.492Z,-0.51
2022-12-12T02:48:14.693Z,-0.54
2022-12-12T02:51:07.613Z,-0.51
2022-12-12T02:53:55.688Z,-0.53
2022-12-12T02:56:47.756Z,-0.54
2022-12-12T02:59:38.977Z,-0.45
2022-12-12T03:03:19.526Z,-0.56
2022-12-12T03:06:41.294Z,-0.62
2022-12-12T03:09:41.006Z,-0.55
2022-12-12T03:12:38.624Z,-0.50
2022-12-12T03:15:35.193Z,-0.36
2022-12-12T03:18:28.695Z,-0.37
2022-12-12T03:21:23.364Z,-0.54
2022-12-12T03:24:18.878Z,-0.45
2022-12-12T03:27:12.014Z,-0.41
2022-12-12T03:30:03.553Z,-0.65
2022-12-12T03:32:58.619Z,-0.36
2022-12-12T03:35:51.389Z,-0.36
2022-12-12T03:38:45.053Z,-0.38
2022-12-12T03:41:37.355Z,-0.38
2022-12-12T03:44:30.230Z,-0.34
2022-12-12T03:47:23.441Z,-0.31
2022-12-12T03:50:17.479Z,-0.35
2022-12-12T03:53:11.237Z,-0.26
2022-12-12T03:56:06.638Z,-0.28
2022-12-12T03:59:00.633Z,-0.31
2022-12-12T04:01:53.908Z,-0.97
2022-12-12T04:04:48.068Z,-0.36
2022-12-12T04:07:41.354Z,-0.29
2022-12-12T04:10:51.725Z,-0.23
2022-12-12T04:13:50.084Z,-0.33
2022-12-12T04:16:43.232Z,-0.36
2022-12-12T04:19:58.539Z,-0.38
2022-12-12T04:23:10.860Z,-0.32
2022-12-12T04:26:25.800Z,-0.32
2022-12-12T04:29:29.736Z,-0.45
2022-12-12T04:32:23.910Z,-0.46
2022-12-12T04:35:15.921Z,-0.43
2022-12-12T04:38:07.189Z,-0.51
2022-12-12T04:40:58.625Z,-0.43
2022-12-12T04:43:50.283Z,-0.36
2022-12-12T04:46:41.992Z,-0.41
2022-12-12T04:49:33.422Z,-0.59
2022-12-12T04:52:23.411Z,-0.47
2022-12-12T04:55:16.399Z,-0.43
2022-12-12T04:58:07.123Z,-0.47
2022-12-12T05:01:01.937Z,-0.43
2022-12-12T05:03:55.372Z,-0.44
2022-12-12T05:06:46.995Z,-0.55
2022-12-12T05:09:36.247Z,-0.50
2022-12-12T05:12:24.268Z,-0.39
2022-12-12T05:15:13.806Z,-0.30
2022-12-12T05:18:06.387Z,-0.32
2022-12-12T05:20:55.651Z,-0.31
2022-12-12T05:23:43.661Z,-0.27
2022-12-12T05:26:33.392Z,-0.30
2022-12-12T05:29:27.514Z,-0.30
2022-12-12T05:32:15.479Z,-0.30
2022-12-12T05:35:03.563Z,-0.29
2022-12-12T05:37:52.959Z,-0.36
2022-12-12T05:40:40.931Z,-0.32
2022-12-12T05:43:30.136Z,-0.32
2022-12-12T05:46:18.123Z,-0.25
2022-12-12T05:49:06.558Z,-0.32
2022-12-12T05:51:55.067Z,-0.38
2022-12-12T05:54:44.385Z,-0.47
2022-12-12T05:57:32.317Z,-0.45
2022-12-12T06:00:20.953Z,-0.43
2022-12-12T06:03:08.920Z,-0.39
2022-12-12T06:05:57.148Z,-0.42
2022-12-12T06:08:45.200Z,-0.46
2022-12-12T06:11:34.500Z,-0.43
2022-12-12T06:14:22.502Z,-0.36
2022-12-12T06:17:10.436Z,-0.35
2022-12-12T06:19:58.421Z,-0.56
2022-12-12T06:22:52.051Z,-0.45
2022-12-12T06:25:41.708Z,-0.48
2022-12-12T06:28:31.460Z,-0.39
2022-12-12T06:31:19.514Z,-0.35
2022-12-12T06:34:08.057Z,-0.27
2022-12-12T06:36:55.997Z,-0.31
2022-12-12T06:39:43.907Z,-0.43
2022-12-12T06:42:31.861Z,-0.41
2022-12-12T06:45:21.477Z,-1.38
2022-12-12T06:48:09.482Z,-0.46
2022-12-12T06:50:57.801Z,-0.52
2022-12-12T06:53:46.029Z,-0.48
2022-12-12T06:56:34.047Z,-0.77
2022-12-12T06:59:22.025Z,-0.75
2022-12-12T07:02:12.500Z,-0.64
2022-12-12T07:04:40.121Z,-0.52
2022-12-12T07:07:07.869Z,-0.49
2022-12-12T07:09:35.559Z,-0.56
2022-12-12T07:12:03.262Z,-0.72
2022-12-12T07:14:30.971Z,-0.68
2022-12-12T07:16:59.022Z,-0.72
2022-12-12T07:19:28.010Z,-0.82
2022-12-12T07:21:55.650Z,-0.73
2022-12-12T07:24:23.419Z,-0.66
2022-12-12T07:26:51.130Z,-0.62
2022-12-12T07:29:18.878Z,-0.70
2022-12-12T07:31:46.477Z,-0.78
2022-12-12T07:34:14.129Z,-0.78
2022-12-12T07:36:43.148Z,-0.76
2022-12-12T07:39:12.565Z,-0.78
2022-12-12T07:41:43.601Z,-0.67
2022-12-12T07:44:11.231Z,-0.70
2022-12-12T07:46:39.307Z,-0.68
2022-12-12T07:49:07.090Z,-0.63
2022-12-12T07:51:34.855Z,-0.66
2022-12-12T07:54:03.953Z,-0.50
2022-12-12T07:56:31.720Z,-0.53
2022-12-12T07:58:59.374Z,-0.51
2022-12-12T08:01:29.584Z,-0.60
2022-12-12T08:03:57.709Z,-0.46
2022-12-12T08:06:25.805Z,-0.54
2022-12-12T08:08:54.566Z,-0.62
2022-12-12T08:11:26.069Z,-0.58
2022-12-12T08:13:54.714Z,-0.46
2022-12-12T08:16:24.652Z,-0.54
2022-12-12T08:18:54.714Z,-0.55
2022-12-12T08:21:25.641Z,-0.52
2022-12-12T08:23:56.536Z,-0.46
2022-12-12T08:26:26.945Z,-0.30
2022-12-12T08:28:56.543Z,-0.22
2022-12-12T08:31:24.677Z,-0.30
2022-12-12T08:33:53.036Z,-0.16
2022-12-12T08:36:23.412Z,-0.34
2022-12-12T08:38:51.724Z,-0.40
2022-12-12T08:41:20.806Z,-0.40
2022-12-12T08:43:50.612Z,-0.16
2022-12-12T08:46:22.235Z,-0.14
2022-12-12T08:48:50.759Z,-0.13
2022-12-12T08:51:19.699Z,0.09
2022-12-12T08:53:49.049Z,-0.29
2022-12-12T08:56:18.289Z,-0.12
2022-12-12T08:58:46.482Z,-0.12
2022-12-12T09:01:17.811Z,-0.07
2022-12-12T09:03:46.030Z,-0.19
2022-12-12T09:06:14.224Z,-0.26
2022-12-12T09:08:42.621Z,-0.16
2022-12-12T09:11:10.980Z,-0.12
2022-12-12T09:13:39.015Z,-0.04
2022-12-12T09:16:08.472Z,0.10
2022-12-12T09:18:40.839Z,-0.13
2022-12-12T09:21:12.418Z,0.01
2022-12-12T09:23:40.111Z,0.18
2022-12-12T09:26:09.634Z,0.16
2022-12-12T09:28:37.590Z,0.27
2022-12-12T09:31:06.882Z,0.36
2022-12-12T09:33:35.200Z,0.43
2022-12-12T09:36:07.921Z,0.42
2022-12-12T09:38:36.353Z,0.51
2022-12-12T09:41:11.630Z,0.47
2022-12-12T09:43:45.139Z,0.52
2022-12-12T09:46:23.130Z,0.56
2022-12-12T09:48:50.796Z,0.53
2022-12-12T09:51:25.938Z,0.48
2022-12-12T09:53:53.763Z,0.41
2022-12-12T09:56:28.752Z,0.37
2022-12-12T09:59:05.443Z,0.35
2022-12-12T10:01:39.164Z,0.34
2022-12-12T10:04:16.618Z,0.27
2022-12-12T10:06:52.165Z,0.20
2022-12-12T10:09:35.665Z,0.14
2022-12-12T10:12:08.442Z,0.18
2022-12-12T10:14:41.968Z,-0.01
2022-12-12T10:17:16.360Z,0.04
2022-12-12T10:19:50.132Z,0.15
2022-12-12T10:22:26.932Z,0.06
2022-12-12T10:24:59.223Z,0.10
2022-12-12T10:27:26.849Z,0.11
2022-12-12T10:29:55.068Z,-0.12
2022-12-12T10:32:34.521Z,0.03
2022-12-12T10:35:18.846Z,0.08
2022-12-12T10:38:01.036Z,0.24
2022-12-12T10:40:49.603Z,0.29
2022-12-12T10:43:22.327Z,0.45
2022-12-12T10:46:12.325Z,0.64
2022-12-12T10:48:40.324Z,1.02
2022-12-12T10:51:12.397Z,1.30
2022-12-12T10:53:42.970Z,1.42
2022-12-12T10:56:13.371Z,1.51
2022-12-12T10:58:43.082Z,1.65
2022-12-12T11:01:14.499Z,1.67
2022-12-12T11:03:45.831Z,1.65
2022-12-12T11:06:16.359Z,1.59
2022-12-12T11:08:56.314Z,1.72
2022-12-12T11:11:25.889Z,1.68
2022-12-12T11:13:55.507Z,1.69
2022-12-12T11:16:25.673Z,1.51
2022-12-12T11:19:07.698Z,1.69
2022-12-12T11:21:37.647Z,1.56
2022-12-12T11:24:10.321Z,1.67
2022-12-12T11:26:46.272Z,1.71
2022-12-12T11:29:35.158Z,1.60
2022-12-12T11:32:04.507Z,1.80
2022-12-12T11:34:34.965Z,1.74
2022-12-12T11:37:04.025Z,1.68
2022-12-12T11:39:38.893Z,1.52
2022-12-12T11:42:19.172Z,1.67
2022-12-12T11:44:57.649Z,1.80
2022-12-12T11:47:28.819Z,1.60
2022-12-12T11:49:58.348Z,1.79
2022-12-12T11:52:30.078Z,1.37
2022-12-12T11:55:00.424Z,1.99
2022-12-12T11:57:44.920Z,1.91
2022-12-12T12:00:16.903Z,1.95
2022-12-12T12:03:14.275Z,1.95
2022-12-12T12:05:52.248Z,1.98
2022-12-12T12:08:35.400Z,2.11
2022-12-12T12:11:18.178Z,2.24
2022-12-12T12:14:04.192Z,1.98
2022-12-12T12:16:47.060Z,2.09
2022-12-12T12:19:20.754Z,2.10
2022-12-12T12:22:01.156Z,2.18
2022-12-12T12:25:04.998Z,2.22
2022-12-12T12:27:42.918Z,2.17
2022-12-12T12:30:20.524Z,2.30
2022-12-12T12:33:16.968Z,2.32
2022-12-12T12:35:57.526Z,2.39
2022-12-12T12:38:29.159Z,2.50
2022-12-12T12:41:15.765Z,2.16
2022-12-12T12:44:04.713Z,1.97
2022-12-12T12:46:40.687Z,2.10
2022-12-12T12:49:16.155Z,2.15
2022-12-12T12:51:50.601Z,2.00
2022-12-12T12:54:23.960Z,1.81
2022-12-12T12:56:57.276Z,1.70
2022-12-12T12:59:33.293Z,1.74
2022-12-12T13:02:05.697Z,1.80
2022-12-12T13:04:42.547Z,1.92
2022-12-12T13:07:17.605Z,2.13
2022-12-12T13:09:51.345Z,2.34
2022-12-12T13:12:26.862Z,2.47
2022-12-12T13:14:59.275Z,2.29
2022-12-12T13:17:40.086Z,2.12
2022-12-12T13:20:16.885Z,2.09
2022-12-12T13:22:58.305Z,1.97
2022-12-12T13:25:35.759Z,1.99
2022-12-12T13:28:11.856Z,1.91
2022-12-12T13:30:58.521Z,1.91
2022-12-12T13:33:39.517Z,2.01
2022-12-12T13:36:12.370Z,1.95
2022-12-12T13:38:41.849Z,1.80
2022-12-12T13:41:11.085Z,1.78
2022-12-12T13:43:45.633Z,1.94
2022-12-12T13:46:38.579Z,1.88
2022-12-12T13:49:29.036Z,1.74
2022-12-12T13:52:27.995Z,1.61
2022-12-12T13:55:18.910Z,1.71
2022-12-12T13:58:17.287Z,1.63
2022-12-12T14:00:45.493Z,1.42
2022-12-12T14:03:31.338Z,1.41
2022-12-12T14:06:11.425Z,1.41
2022-12-12T14:08:47.337Z,1.39
2022-12-12T14:11:27.523Z,1.33
2022-12-12T14:14:18.259Z,1.30
2022-12-12T14:16:53.589Z,1.16
2022-12-12T14:19:35.858Z,0.99
2022-12-12T14:22:04.116Z,1.09
2022-12-12T14:25:06.886Z,0.88
2022-12-12T14:28:04.345Z,0.73
2022-12-12T14:30:45.588Z,0.83
2022-12-12T14:33:42.262Z,0.77
2022-12-12T14:36:49.640Z,0.68
2022-12-12T14:39:33.696Z,0.59
2022-12-12T14:42:05.992Z,0.59
2022-12-12T14:44:36.281Z,0.53
2022-12-12T14:47:08.749Z,0.53
2022-12-12T14:49:36.768Z,0.55
2022-12-12T14:52:06.164Z,0.41
2022-12-12T14:54:34.051Z,0.33
2022-12-12T14:57:02.357Z,0.31
2022-12-12T14:59:33.635Z,0.22
2022-12-12T15:02:07.142Z,0.09
2022-12-12T15:04:38.981Z,0.03
2022-12-12T15:07:23.962Z,-0.06
2022-12-12T15:09:51.648Z,-0.22
2022-12-12T15:12:22.486Z,-0.31
2022-12-12T15:14:56.530Z,-0.31
2022-12-12T15:17:27.663Z,-0.38
2022-12-12T15:19:58.700Z,-0.54
2022-12-12T15:22:29.742Z,-0.41
2022-12-12T15:24:59.494Z,-0.39
2022-12-12T15:27:31.753Z,-0.44
2022-12-12T15:30:00.580Z,-0.58
2022-12-12T15:32:29.678Z,-0.57
2022-12-12T15:35:04.215Z,-0.76
2022-12-12T15:37:34.817Z,-0.82
2022-12-12T15:40:19.959Z,-0.97
2022-12-12T15:42:52.427Z,-1.04
2022-12-12T15:45:25.687Z,-0.99
2022-12-12T15:47:55.509Z,-0.87
2022-12-12T15:50:26.547Z,-0.89
2022-12-12T15:53:05.478Z,-1.23
2022-12-12T15:55:34.387Z,-1.12
2022-12-12T15:58:02.170Z,-1.16
2022-12-12T16:00:34.443Z,-1.28
2022-12-12T16:03:06.004Z,-1.33
2022-12-12T16:05:37.355Z,-1.63
2022-12-12T16:08:32.117Z,-1.61
2022-12-12T16:11:01.801Z,-1.78
2022-12-12T16:13:37.106Z,-1.74
2022-12-12T16:16:36.506Z,-1.71
2022-12-12T16:19:06.242Z,-1.80
2022-12-12T16:21:36.549Z,-1.85
2022-12-12T16:24:20.881Z,-1.96
2022-12-12T16:26:48.567Z,-1.90
2022-12-12T16:29:16.340Z,-1.95
2022-12-12T16:31:44.892Z,-1.86
2022-12-12T16:34:12.655Z,-1.84
2022-12-12T16:36:42.355Z,-1.74
2022-12-12T16:39:13.743Z,-1.73
2022-12-12T16:41:42.053Z,-1.70
2022-12-12T16:44:09.766Z,-1.57
2022-12-12T16:46:37.516Z,-1.40
2022-12-12T16:49:07.360Z,-1.39
2022-12-12T16:51:37.872Z,-1.44
2022-12-12T16:54:05.723Z,-1.37
2022-12-12T16:56:34.866Z,-1.47
2022-12-12T16:59:02.605Z,-1.61
2022-12-12T17:01:33.390Z,-1.66
2022-12-12T17:04:05.150Z,-1.74
2022-12-12T17:06:32.907Z,-1.73
2022-12-12T17:09:00.535Z,-1.86
2022-12-12T17:11:28.248Z,-1.94
2022-12-12T17:13:57.227Z,-1.91
2022-12-12T17:16:27.880Z,-2.06
2022-12-12T17:18:56.011Z,-2.08
2022-12-12T17:21:23.655Z,-2.13
2022-12-12T17:23:51.646Z,-2.17
2022-12-12T17:26:19.296Z,-2.14
2022-12-12T17:28:46.910Z,-2.21
2022-12-12T17:31:15.918Z,-2.31
2022-12-12T17:33:50.538Z,-2.46
2022-12-12T17:36:19.684Z,-2.62
2022-12-12T17:38:48.831Z,-2.49
2022-12-12T17:41:16.729Z,-2.67
2022-12-12T17:43:44.459Z,-2.68
2022-12-12T17:46:15.033Z,-2.75
2022-12-12T17:48:47.284Z,-2.73
2022-12-12T17:51:16.263Z,-2.58
2022-12-12T17:53:44.232Z,-2.59
2022-12-12T17:56:14.174Z,-2.62
2022-12-12T17:58:43.852Z,-2.57
2022-12-12T18:01:12.412Z,-2.66
2022-12-12T18:03:40.190Z,-2.64
2022-12-12T18:06:11.160Z,-2.78
2022-12-12T18:08:39.168Z,-2.57
2022-12-12T18:11:08.778Z,-2.59
2022-12-12T18:13:38.514Z,-2.89
2022-12-12T18:16:08.216Z,-2.69
2022-12-12T18:18:36.194Z,-2.80
2022-12-12T18:21:05.506Z,-2.70
2022-12-12T18:23:35.198Z,-2.61
2022-12-12T18:26:05.027Z,-2.67
2022-12-12T18:28:32.825Z,-2.69
2022-12-12T18:31:00.662Z,-2.82
2022-12-12T18:33:28.551Z,-2.93
2022-12-12T18:36:01.918Z,-2.96
2022-12-12T18:38:30.301Z,-3.12
2022-12-12T18:40:59.617Z,-3.01
2022-12-12T18:43:28.165Z,-3.08
2022-12-12T18:45:55.980Z,-3.06
2022-12-12T18:48:23.804Z,-2.99
2022-12-12T18:50:51.463Z,-3.08
2022-12-12T18:53:19.255Z,-2.98
2022-12-12T18:55:47.596Z,-3.13
2022-12-12T18:58:16.588Z,-3.09
2022-12-12T19:00:46.452Z,-3.04
2022-12-12T19:03:14.223Z,-3.04
2022-12-12T19:05:44.400Z,-3.08
2022-12-12T19:08:12.806Z,-3.15
2022-12-12T19:10:41.776Z,-3.15
2022-12-12T19:13:09.443Z,-3.08
2022-12-12T19:15:38.842Z,-3.13
2022-12-12T19:18:06.752Z,-3.22
2022-12-12T19:20:36.555Z,-3.24
2022-12-12T19:23:04.325Z,-3.33
2022-12-12T19:25:40.913Z,-3.42
2022-12-12T19:28:11.431Z,-3.49
2022-12-12T19:30:42.410Z,-3.53
2022-12-12T19:33:10.339Z,-3.53
2022-12-12T19:35:38.688Z,-3.62
2022-12-12T19:38:06.360Z,-3.54
2022-12-12T19:40:34.115Z,-3.40
2022-12-12T19:43:02.757Z,-3.34
2022-12-12T19:45:31.073Z,-3.20
2022-12-12T19:48:00.076Z,-3.16
2022-12-12T19:50:27.770Z,-2.96
2022-12-12T19:52:55.976Z,-2.87
2022-12-12T19:55:24.061Z,-2.83
2022-12-12T19:57:51.709Z,-2.80
2022-12-12T20:00:20.845Z,-2.92
2022-12-12T20:02:48.586Z,-2.86
2022-12-12T20:05:17.818Z,-2.88
2022-12-12T20:07:45.539Z,-2.82
2022-12-12T20:10:13.586Z,-2.88
2022-12-12T20:12:51.904Z,-2.91
2022-12-12T20:15:24.007Z,-2.85
2022-12-12T20:17:51.638Z,-2.79
2022-12-12T20:20:21.906Z,-2.86
2022-12-12T20:22:49.697Z,-2.78
2022-12-12T20:25:17.575Z,-2.78
2022-12-12T20:27:45.226Z,-2.73
2022-12-12T20:30:13.581Z,-2.87
2022-12-12T20:32:41.428Z,-2.76
2022-12-12T20:35:09.590Z,-2.75
2022-12-12T20:37:38.693Z,-2.82
2022-12-12T20:40:08.304Z,-2.79
2022-12-12T20:42:36.017Z,-2.88
2022-12-12T20:45:03.628Z,-2.84
2022-12-12T20:47:33.326Z,-2.95
2022-12-12T20:50:01.133Z,-2.96
2022-12-12T20:52:29.153Z,-3.00
2022-12-12T20:54:58.392Z,-3.03
2022-12-12T20:57:26.091Z,-3.12
2022-12-12T20:59:54.718Z,-3.16
2022-12-12T21:02:26.081Z,-3.14
2022-12-12T21:05:15.465Z,-3.15
2022-12-12T21:08:03.849Z,-3.18
2022-12-12T21:10:53.235Z,-3.12
2022-12-12T21:13:41.183Z,-3.16
2022-12-12T21:16:31.690Z,-3.28
2022-12-12T21:19:19.734Z,-3.31
2022-12-12T21:22:08.317Z,-3.30
2022-12-12T21:24:56.231Z,-3.24
2022-12-12T21:27:45.510Z,-3.16
2022-12-12T21:30:33.488Z,-3.14
2022-12-12T21:33:21.671Z,-3.18
2022-12-12T21:36:12.330Z,-3.04
2022-12-12T21:39:02.301Z,-3.51
2022-12-12T21:41:51.865Z,-3.08
2022-12-12T21:44:45.484Z,-3.01
2022-12-12T21:47:33.845Z,-2.92
2022-12-12T21:50:26.048Z,-2.92
2022-12-12T21:53:35.288Z,-2.89
2022-12-12T21:56:23.187Z,-2.96
2022-12-12T21:59:11.864Z,-2.91
2022-12-12T22:02:01.828Z,-2.87
2022-12-12T22:04:49.826Z,-2.89
2022-12-12T22:07:37.744Z,-2.97
2022-12-12T22:10:25.681Z,-3.02
2022-12-12T22:13:13.613Z,-3.10
2022-12-12T22:16:04.321Z,-3.18
2022-12-12T22:18:54.998Z,-3.25
2022-12-12T22:21:45.275Z,-3.33
2022-12-12T22:24:33.403Z,-3.21
2022-12-12T22:27:21.304Z,-3.22
2022-12-12T22:30:10.121Z,-3.29
2022-12-12T22:32:58.043Z,-3.38
2022-12-12T22:35:47.317Z,-3.30
2022-12-12T22:38:38.377Z,-3.23
2022-12-12T22:41:27.121Z,-3.14
2022-12-12T22:44:16.869Z,-3.15
2022-12-12T22:47:04.952Z,-3.18
2022-12-12T22:49:53.056Z,-3.23
2022-12-12T22:52:42.317Z,-3.21
2022-12-12T22:55:30.245Z,-3.18
2022-12-12T22:58:18.174Z,-3.30
2022-12-12T23:01:10.684Z,-3.28
2022-12-12T23:03:59.164Z,-3.25
2022-12-12T23:06:47.266Z,-3.24
2022-12-12T23:09:36.614Z,-3.22
2022-12-12T23:12:24.568Z,-3.21
2022-12-12T23:15:12.959Z,-3.30
2022-12-12T23:18:01.007Z,-3.24
2022-12-12T23:20:48.983Z,-3.34
2022-12-12T23:23:37.402Z,-3.32
2022-12-12T23:26:30.087Z,-3.36
2022-12-12T23:29:20.098Z,-3.39
2022-12-12T23:32:08.577Z,-3.42
2022-12-12T23:34:56.503Z,-3.49
2022-12-12T23:37:44.411Z,-3.51
2022-12-12T23:40:32.325Z,-3.44
2022-12-12T23:43:21.582Z,-3.40
2022-12-12T23:46:27.865Z,-3.35
2022-12-12T23:49:18.746Z,-3.37
2022-12-12T23:52:06.684Z,-3.39
2022-12-12T23:54:54.591Z,-3.41
2022-12-12T23:57:42.519Z,-3.45
